createdAt,value
2022-08-18T00:01:59.115Z,77.30
2022-08-18T00:04:35.658Z,77.40
2022-08-18T00:07:04.973Z,77.60
2022-08-18T00:09:33.917Z,77.60
2022-08-18T00:12:03.093Z,77.60
2022-08-18T00:14:32.526Z,77.60
2022-08-18T00:17:01.435Z,77.50
2022-08-18T00:19:47.459Z,77.60
2022-08-18T00:22:18.164Z,77.60
2022-08-18T00:24:49.203Z,77.70
2022-08-18T00:27:21.603Z,77.60
2022-08-18T00:29:53.138Z,77.70
2022-08-18T00:32:23.764Z,77.50
2022-08-18T00:34:51.892Z,77.70
2022-08-18T00:37:19.678Z,77.60
2022-08-18T00:39:48.111Z,77.60
2022-08-18T00:42:27.796Z,77.60
2022-08-18T00:45:01.855Z,77.60
2022-08-18T00:47:42.056Z,77.90
2022-08-18T00:50:15.456Z,77.90
2022-08-18T00:52:50.857Z,78.00
2022-08-18T00:55:20.011Z,78.10
2022-08-18T00:57:51.867Z,77.90
2022-08-18T01:00:22.184Z,77.80
2022-08-18T01:02:55.492Z,77.80
2022-08-18T01:05:30.320Z,77.80
2022-08-18T01:07:58.402Z,77.80
2022-08-18T01:10:29.584Z,77.80
2022-08-18T01:12:59.028Z,77.90
2022-08-18T01:15:30.383Z,77.90
2022-08-18T01:18:17.428Z,78.10
2022-08-18T01:21:10.121Z,78.00
2022-08-18T01:23:40.592Z,78.00
2022-08-18T01:26:09.185Z,78.00
2022-08-18T01:28:40.550Z,78.00
2022-08-18T01:31:10.849Z,78.10
2022-08-18T01:33:40.653Z,78.20
2022-08-18T01:36:16.616Z,78.20
2022-08-18T01:38:47.763Z,78.30
2022-08-18T01:41:26.573Z,78.40
2022-08-18T01:43:57.070Z,78.30
2022-08-18T01:46:24.818Z,78.50
2022-08-18T01:48:53.538Z,78.70
2022-08-18T01:51:34.727Z,78.60
2022-08-18T01:54:11.143Z,78.80
2022-08-18T01:56:39.176Z,78.90
2022-08-18T01:59:07.184Z,79.10
2022-08-18T02:01:48.098Z,78.90
2022-08-18T02:07:09.089Z,79.00
2022-08-18T02:09:40.092Z,79.00
2022-08-18T02:12:08.599Z,78.90
2022-08-18T02:14:37.119Z,78.70
2022-08-18T02:17:06.297Z,78.80
2022-08-18T02:19:34.982Z,78.70
2022-08-18T02:22:03.207Z,78.80
2022-08-18T02:24:31.031Z,78.80
2022-08-18T02:27:00.580Z,78.70
2022-08-18T02:29:28.542Z,78.80
2022-08-18T02:31:56.590Z,79.00
2022-08-18T02:34:25.490Z,79.00
2022-08-18T02:36:54.078Z,79.00
2022-08-18T02:39:22.148Z,79.10
2022-08-18T02:41:50.040Z,79.10
2022-08-18T02:44:19.351Z,79.10
2022-08-18T02:46:47.100Z,79.00
2022-08-18T02:49:14.837Z,79.00
2022-08-18T02:51:45.925Z,79.10
2022-08-18T02:54:13.684Z,79.20
2022-08-18T02:56:42.626Z,79.40
2022-08-18T02:59:13.729Z,79.50
2022-08-18T03:04:40.424Z,79.40
2022-08-18T03:07:09.178Z,79.40
2022-08-18T03:09:37.638Z,79.30
2022-08-18T03:12:07.151Z,79.40
2022-08-18T03:14:36.295Z,79.40
2022-08-18T03:17:08.181Z,79.40
2022-08-18T03:19:36.681Z,79.50
2022-08-18T03:22:05.887Z,79.60
2022-08-18T03:24:53.794Z,79.50
2022-08-18T03:27:21.567Z,79.70
2022-08-18T03:29:50.641Z,79.70
2022-08-18T03:35:15.853Z,79.90
2022-08-18T03:37:44.387Z,79.90
2022-08-18T03:40:12.962Z,79.70
2022-08-18T03:42:40.868Z,79.80
2022-08-18T03:45:13.340Z,79.90
2022-08-18T03:47:46.932Z,79.70
2022-08-18T03:50:14.770Z,79.70
2022-08-18T03:52:42.591Z,79.80
2022-08-18T03:55:10.763Z,79.70
2022-08-18T03:57:39.503Z,79.70
2022-08-18T04:00:09.676Z,79.80
2022-08-18T04:02:37.494Z,79.80
2022-08-18T04:05:10.049Z,80.00
2022-08-18T04:07:37.967Z,80.00
2022-08-18T04:10:06.484Z,79.90
2022-08-18T04:12:47.091Z,79.90
2022-08-18T04:15:14.932Z,79.90
2022-08-18T04:18:02.995Z,80.00
2022-08-18T04:20:33.104Z,80.00
2022-08-18T04:23:01.037Z,79.90
2022-08-18T04:25:32.697Z,79.80
2022-08-18T04:28:03.845Z,79.80
2022-08-18T04:30:31.655Z,79.90
2022-08-18T04:32:59.422Z,79.90
2022-08-18T04:35:29.107Z,80.00
2022-08-18T04:37:58.239Z,80.10
2022-08-18T04:40:27.101Z,80.20
2022-08-18T04:42:55.008Z,80.30
2022-08-18T04:45:22.760Z,80.50
2022-08-18T04:47:51.257Z,80.50
2022-08-18T04:50:19.183Z,80.70
2022-08-18T04:53:06.280Z,80.80
2022-08-18T04:55:35.386Z,81.00
2022-08-18T04:58:03.936Z,81.10
2022-08-18T05:00:31.674Z,81.10
2022-08-18T05:03:00.261Z,81.30
2022-08-18T05:05:28.134Z,81.30
2022-08-18T05:07:57.878Z,81.40
2022-08-18T05:10:25.610Z,81.50
2022-08-18T05:12:55.657Z,81.50
2022-08-18T05:15:23.417Z,81.40
2022-08-18T05:17:51.376Z,81.30
2022-08-18T05:20:20.565Z,81.30
2022-08-18T05:22:49.008Z,81.40
2022-08-18T05:25:17.376Z,81.50
2022-08-18T05:27:45.294Z,81.40
2022-08-18T05:30:15.424Z,81.50
2022-08-18T05:32:48.164Z,81.50
2022-08-18T05:35:22.958Z,81.70
2022-08-18T05:38:15.535Z,81.70
2022-08-18T05:40:45.957Z,81.90
2022-08-18T05:43:15.999Z,81.80
2022-08-18T05:45:45.288Z,81.80
2022-08-18T05:48:21.442Z,82.00
2022-08-18T05:50:50.082Z,81.90
2022-08-18T05:53:20.713Z,81.90
2022-08-18T05:56:18.609Z,81.90
2022-08-18T05:58:52.320Z,82.30
2022-08-18T06:01:27.013Z,82.40
2022-08-18T06:03:59.612Z,82.40
2022-08-18T06:06:30.351Z,82.60
2022-08-18T06:09:04.124Z,82.50
2022-08-18T06:11:32.528Z,82.50
2022-08-18T06:14:01.287Z,82.70
2022-08-18T06:16:44.557Z,82.80
2022-08-18T06:19:27.408Z,83.00
2022-08-18T06:22:04.396Z,83.10
2022-08-18T06:24:39.036Z,83.20
2022-08-18T06:27:15.047Z,83.30
2022-08-18T06:29:58.727Z,83.30
2022-08-18T06:32:53.165Z,83.40
2022-08-18T06:35:30.644Z,83.40
2022-08-18T06:38:45.600Z,83.40
2022-08-18T06:41:37.926Z,83.40
2022-08-18T06:44:08.058Z,83.50
2022-08-18T06:46:43.143Z,83.60
2022-08-18T06:49:17.817Z,83.60
2022-08-18T06:51:45.569Z,83.70
2022-08-18T06:54:29.346Z,83.70
2022-08-18T06:56:58.803Z,83.90
2022-08-18T06:59:29.608Z,84.00
2022-08-18T07:02:01.860Z,84.00
2022-08-18T07:04:39.246Z,84.00
2022-08-18T07:07:15.615Z,84.00
2022-08-18T07:09:43.499Z,84.70
2022-08-18T07:12:11.992Z,84.20
2022-08-18T07:14:47.562Z,84.20
2022-08-18T07:17:22.144Z,84.40
2022-08-18T07:20:08.983Z,84.30
2022-08-18T07:22:55.863Z,84.40
2022-08-18T07:25:26.729Z,84.40
2022-08-18T07:27:56.805Z,84.50
2022-08-18T07:30:31.140Z,84.50
2022-08-18T07:33:05.617Z,84.60
2022-08-18T07:35:39.447Z,84.30
2022-08-18T07:38:40.842Z,84.30
2022-08-18T07:41:09.829Z,84.50
2022-08-18T07:43:43.317Z,84.30
2022-08-18T07:46:17.153Z,84.30
2022-08-18T07:48:44.995Z,84.30
2022-08-18T07:51:23.571Z,84.40
2022-08-18T07:53:58.447Z,84.40
2022-08-18T07:56:37.854Z,84.60
2022-08-18T07:59:13.962Z,84.60
2022-08-18T08:01:49.159Z,84.60
2022-08-18T08:04:27.259Z,84.50
2022-08-18T08:07:23.916Z,85.20
2022-08-18T08:09:59.409Z,84.40
2022-08-18T08:12:37.063Z,84.30
2022-08-18T08:15:13.527Z,84.10
2022-08-18T08:17:50.480Z,84.40
2022-08-18T08:20:33.121Z,84.20
2022-08-18T08:23:17.826Z,84.20
2022-08-18T08:25:57.521Z,83.90
2022-08-18T08:28:36.850Z,84.00
2022-08-18T08:31:33.205Z,83.90
2022-08-18T08:34:06.460Z,84.50
2022-08-18T08:36:37.674Z,84.00
2022-08-18T08:39:13.350Z,84.20
2022-08-18T08:41:46.561Z,84.20
2022-08-18T08:44:21.385Z,84.20
2022-08-18T08:46:55.257Z,84.20
2022-08-18T08:49:40.029Z,84.20
2022-08-18T08:52:18.954Z,84.30
2022-08-18T08:54:53.649Z,84.20
2022-08-18T08:57:26.003Z,84.20
2022-08-18T08:59:57.594Z,84.20
2022-08-18T09:02:47.810Z,84.10
2022-08-18T09:05:20.849Z,84.20
2022-08-18T09:08:31.875Z,84.30
2022-08-18T09:11:29.969Z,84.20
2022-08-18T09:14:39.346Z,84.30
2022-08-18T09:17:34.436Z,84.30
2022-08-18T09:20:22.166Z,84.20
2022-08-18T09:22:54.880Z,84.40
2022-08-18T09:25:35.009Z,84.30
2022-08-18T09:28:13.840Z,84.50
2022-08-18T09:30:51.245Z,84.40
2022-08-18T09:33:32.089Z,84.40
2022-08-18T09:36:25.680Z,84.20
2022-08-18T09:39:23.443Z,84.00
2022-08-18T09:41:56.147Z,83.80
2022-08-18T09:45:04.306Z,83.60
2022-08-18T09:48:25.530Z,83.60
2022-08-18T09:51:39.999Z,83.80
2022-08-18T09:54:21.432Z,83.20
2022-08-18T09:57:21.465Z,83.10
2022-08-18T10:00:26.450Z,83.10
2022-08-18T10:03:25.835Z,83.00
2022-08-18T10:06:29.579Z,82.90
2022-08-18T10:09:36.096Z,82.80
2022-08-18T10:12:27.470Z,82.80
2022-08-18T10:15:14.388Z,82.80
2022-08-18T10:18:17.761Z,82.70
2022-08-18T10:21:00.379Z,82.70
2022-08-18T10:23:58.197Z,82.70
2022-08-18T10:27:33.028Z,82.60
2022-08-18T10:30:04.993Z,82.50
2022-08-18T10:35:59.153Z,82.30
2022-08-18T10:38:49.381Z,82.00
2022-08-18T10:41:24.647Z,82.70
2022-08-18T10:43:57.603Z,81.90
2022-08-18T10:46:31.927Z,81.70
2022-08-18T10:49:17.462Z,81.50
2022-08-18T10:52:03.769Z,81.60
2022-08-18T10:54:51.984Z,81.60
2022-08-18T10:57:31.774Z,81.30
2022-08-18T11:00:06.903Z,81.30
2022-08-18T11:03:02.463Z,81.20
2022-08-18T11:05:43.080Z,81.00
2022-08-18T11:08:17.159Z,80.90
2022-08-18T11:11:27.641Z,80.70
2022-08-18T11:13:49.700Z,80.50
2022-08-18T11:16:33.597Z,80.50
2022-08-18T11:19:10.017Z,80.50
2022-08-18T11:21:43.329Z,80.40
2022-08-18T11:24:17.104Z,80.40
2022-08-18T11:26:52.646Z,80.30
2022-08-18T11:29:32.551Z,80.10
2022-08-18T11:35:03.715Z,80.00
2022-08-18T11:37:52.133Z,79.90
2022-08-18T11:43:24.577Z,79.70
2022-08-18T11:45:55.284Z,79.60
2022-08-18T11:48:50.878Z,79.50
2022-08-18T11:51:24.886Z,79.40
2022-08-18T11:53:59.746Z,80.00
2022-08-18T11:56:37.942Z,79.30
2022-08-18T11:59:08.584Z,79.20
2022-08-18T12:01:42.138Z,79.10
2022-08-18T12:04:24.686Z,79.10
2022-08-18T12:07:02.149Z,79.10
2022-08-18T12:12:31.620Z,79.10
2022-08-18T12:15:13.798Z,78.70
2022-08-18T12:17:49.930Z,78.40
2022-08-18T12:20:20.917Z,78.30
2022-08-18T12:22:49.567Z,78.00
2022-08-18T12:25:25.305Z,77.90
2022-08-18T12:27:54.840Z,77.70
2022-08-18T12:30:23.363Z,77.60
2022-08-18T12:33:05.573Z,77.60
2022-08-18T12:35:38.438Z,77.60
2022-08-18T12:38:12.880Z,77.70
2022-08-18T12:40:43.303Z,77.60
2022-08-18T12:43:13.057Z,77.50
2022-08-18T12:45:41.451Z,77.50
2022-08-18T12:48:10.049Z,77.30
2022-08-18T12:50:49.725Z,77.10
2022-08-18T12:53:29.456Z,76.60
2022-08-18T12:56:07.197Z,76.50
2022-08-18T12:58:37.849Z,76.70
2022-08-18T13:01:08.489Z,76.50
2022-08-18T13:03:37.037Z,76.40
2022-08-18T13:06:06.587Z,75.80
2022-08-18T13:08:48.178Z,76.00
2022-08-18T13:11:21.507Z,76.10
2022-08-18T13:13:56.379Z,76.10
2022-08-18T13:16:38.694Z,75.70
2022-08-18T13:19:14.851Z,75.80
2022-08-18T13:21:43.184Z,75.70
2022-08-18T13:24:12.501Z,75.70
2022-08-18T13:26:45.867Z,75.50
2022-08-18T13:29:17.606Z,75.30
2022-08-18T13:31:55.450Z,75.10
2022-08-18T13:34:27.421Z,75.10
2022-08-18T13:36:57.691Z,75.30
2022-08-18T13:39:31.414Z,75.20
2022-08-18T13:42:21.798Z,74.40
2022-08-18T13:44:54.971Z,74.80
2022-08-18T13:47:27.827Z,74.50
2022-08-18T13:49:58.650Z,74.60
2022-08-18T13:52:36.271Z,74.40
2022-08-18T13:55:11.868Z,74.50
2022-08-18T13:57:48.110Z,74.70
2022-08-18T14:00:29.529Z,74.80
2022-08-18T14:03:03.306Z,75.00
2022-08-18T14:05:36.374Z,75.00
2022-08-18T14:08:19.685Z,74.90
2022-08-18T14:10:49.968Z,74.70
2022-08-18T14:13:20.687Z,74.50
2022-08-18T14:15:56.123Z,74.80
2022-08-18T14:18:28.995Z,74.60
2022-08-18T14:21:16.669Z,74.90
2022-08-18T14:24:01.106Z,74.90
2022-08-18T14:26:50.094Z,74.80
2022-08-18T14:29:43.008Z,74.80
2022-08-18T14:32:18.217Z,74.80
2022-08-18T14:34:50.917Z,74.50
2022-08-18T14:37:19.147Z,74.60
2022-08-18T14:39:47.838Z,74.70
2022-08-18T14:42:21.371Z,74.80
2022-08-18T14:45:17.803Z,74.70
2022-08-18T14:47:57.971Z,74.80
2022-08-18T14:50:25.899Z,74.70
2022-08-18T14:52:54.515Z,74.70
2022-08-18T14:55:23.213Z,74.70
2022-08-18T14:57:51.271Z,74.60
2022-08-18T15:00:20.943Z,74.60
2022-08-18T15:02:51.278Z,74.40
2022-08-18T15:05:24.278Z,74.40
2022-08-18T15:07:53.440Z,74.40
2022-08-18T15:10:23.682Z,74.60
2022-08-18T15:12:57.797Z,74.60
2022-08-18T15:15:25.661Z,74.40
2022-08-18T15:17:53.931Z,74.30
2022-08-18T15:20:29.456Z,74.50
2022-08-18T15:23:18.379Z,74.40
2022-08-18T15:25:54.193Z,74.30
2022-08-18T15:28:25.311Z,74.10
2022-08-18T15:33:42.015Z,74.10
2022-08-18T15:36:16.133Z,74.00
2022-08-18T15:38:44.339Z,73.90
2022-08-18T15:41:29.432Z,73.80
2022-08-18T15:43:59.119Z,73.80
2022-08-18T15:46:26.852Z,73.80
2022-08-18T15:48:55.982Z,73.80
2022-08-18T15:51:25.113Z,73.90
2022-08-18T15:53:53.243Z,73.80
2022-08-18T15:56:28.625Z,73.80
2022-08-18T15:58:57.411Z,73.90
2022-08-18T16:01:30.455Z,73.90
2022-08-18T16:04:03.112Z,73.90
2022-08-18T16:06:34.928Z,74.00
2022-08-18T16:09:07.778Z,73.90
2022-08-18T16:11:37.125Z,73.80
2022-08-18T16:14:04.917Z,73.80
2022-08-18T16:16:36.291Z,73.80
2022-08-18T16:19:05.987Z,73.90
2022-08-18T16:21:41.330Z,74.00
2022-08-18T16:24:13.570Z,74.10
2022-08-18T16:26:42.247Z,73.90
2022-08-18T16:29:10.829Z,73.80
2022-08-18T16:31:41.466Z,73.90
2022-08-18T16:34:09.375Z,73.80
2022-08-18T16:36:38.463Z,73.70
2022-08-18T16:39:06.384Z,73.80
2022-08-18T16:41:34.765Z,73.90
2022-08-18T16:44:05.039Z,73.80
2022-08-18T16:46:32.779Z,73.90
2022-08-18T16:49:01.094Z,73.80
2022-08-18T16:51:29.403Z,73.70
2022-08-18T16:53:59.413Z,73.90
2022-08-18T16:56:29.407Z,73.90
2022-08-18T16:59:15.009Z,74.00
2022-08-18T17:02:01.564Z,74.10
2022-08-18T17:04:33.449Z,74.10
2022-08-18T17:07:03.039Z,74.10
2022-08-18T17:09:33.076Z,74.00
2022-08-18T17:12:03.734Z,74.00
2022-08-18T17:14:32.843Z,74.10
2022-08-18T17:17:01.771Z,74.10
2022-08-18T17:19:33.406Z,74.20
2022-08-18T17:22:03.861Z,74.30
2022-08-18T17:24:33.295Z,74.30
2022-08-18T17:27:12.219Z,74.40
2022-08-18T17:30:01.391Z,74.40
2022-08-18T17:32:32.475Z,74.50
2022-08-18T17:35:07.270Z,74.60
2022-08-18T17:37:36.921Z,74.70
2022-08-18T17:40:13.978Z,74.60
2022-08-18T17:42:41.761Z,74.70
2022-08-18T17:45:13.752Z,74.70
2022-08-18T17:47:57.618Z,74.70
2022-08-18T17:50:46.929Z,74.90
2022-08-18T17:53:15.627Z,75.00
2022-08-18T17:55:48.265Z,74.90
2022-08-18T17:58:21.915Z,74.90
2022-08-18T18:00:49.705Z,75.00
2022-08-18T18:03:17.527Z,74.90
2022-08-18T18:05:53.293Z,75.00
2022-08-18T18:08:21.245Z,74.90
2022-08-18T18:11:07.637Z,74.90
2022-08-18T18:13:35.603Z,75.00
2022-08-18T18:16:21.953Z,75.10
2022-08-18T18:19:01.294Z,75.00
2022-08-18T18:22:00.797Z,75.00
2022-08-18T18:24:23.622Z,75.00
2022-08-18T18:26:53.401Z,75.00
2022-08-18T18:29:28.156Z,75.00
2022-08-18T18:32:03.020Z,75.10
2022-08-18T18:34:34.104Z,75.20
2022-08-18T18:37:02.925Z,75.00
2022-08-18T18:39:34.127Z,75.10
2022-08-18T18:42:17.544Z,75.20
2022-08-18T18:44:53.005Z,75.10
2022-08-18T18:47:42.411Z,75.20
2022-08-18T18:50:18.199Z,75.20
2022-08-18T18:52:57.893Z,75.30
2022-08-18T18:55:27.476Z,75.30
2022-08-18T18:58:12.824Z,75.30
2022-08-18T19:00:53.592Z,75.40
2022-08-18T19:03:30.578Z,75.30
2022-08-18T19:06:11.087Z,75.40
2022-08-18T19:08:47.665Z,75.40
2022-08-18T19:11:21.760Z,75.40
2022-08-18T19:13:56.639Z,75.40
2022-08-18T19:16:29.239Z,75.40
2022-08-18T19:19:37.020Z,75.40
2022-08-18T19:22:03.596Z,75.50
2022-08-18T19:24:38.533Z,75.70
2022-08-18T19:27:11.627Z,75.70
2022-08-18T19:29:43.981Z,75.70
2022-08-18T19:32:16.757Z,75.60
2022-08-18T19:34:52.836Z,75.60
2022-08-18T19:37:31.433Z,75.60
2022-08-18T19:40:11.323Z,75.70
2022-08-18T19:42:44.962Z,75.80
2022-08-18T19:45:30.843Z,75.90
2022-08-18T19:48:06.126Z,76.00
2022-08-18T19:50:38.385Z,76.10
2022-08-18T19:53:27.983Z,76.10
2022-08-18T19:56:12.358Z,76.30
2022-08-18T19:59:15.773Z,76.20
2022-08-18T20:02:00.249Z,76.40
2022-08-18T20:04:43.405Z,76.50
2022-08-18T20:07:40.041Z,76.60
2022-08-18T20:10:25.328Z,76.60
2022-08-18T20:13:12.264Z,76.60
2022-08-18T20:16:04.638Z,76.70
2022-08-18T20:18:36.471Z,76.80
2022-08-18T20:21:36.864Z,76.80
2022-08-18T20:24:18.282Z,77.00
2022-08-18T20:26:49.053Z,77.10
2022-08-18T20:29:19.335Z,77.20
2022-08-18T20:31:54.276Z,77.30
2022-08-18T20:34:25.068Z,77.30
2022-08-18T20:36:54.356Z,77.40
2022-08-18T20:39:35.341Z,77.40
2022-08-18T20:42:04.755Z,77.50
2022-08-18T20:44:58.785Z,77.50
2022-08-18T20:47:47.815Z,77.50
2022-08-18T20:50:44.005Z,77.60
2022-08-18T20:53:31.117Z,77.60
2022-08-18T20:56:32.202Z,77.70
2022-08-18T20:59:08.541Z,77.70
2022-08-18T21:01:38.892Z,77.80
2022-08-18T21:04:07.309Z,77.80
2022-08-18T21:06:44.420Z,77.90
2022-08-18T21:09:18.245Z,78.10
2022-08-18T21:11:48.370Z,78.10
2022-08-18T21:14:25.730Z,78.20
2022-08-18T21:16:58.806Z,78.20
2022-08-18T21:19:28.302Z,78.20
2022-08-18T21:21:59.898Z,78.30
2022-08-18T21:24:32.885Z,78.40
2022-08-18T21:27:04.750Z,78.60
2022-08-18T21:29:46.942Z,78.80
2022-08-18T21:32:20.843Z,78.80
2022-08-18T21:34:49.157Z,78.70
2022-08-18T21:37:19.201Z,78.70
2022-08-18T21:39:53.809Z,78.70
2022-08-18T21:42:26.052Z,78.80
2022-08-18T21:44:55.754Z,79.00
2022-08-18T21:47:26.295Z,78.90
2022-08-18T21:50:08.382Z,79.00
2022-08-18T21:52:40.262Z,79.00
2022-08-18T21:55:13.307Z,79.00
2022-08-18T21:58:00.820Z,79.20
2022-08-18T22:00:31.095Z,79.20
2022-08-18T22:03:27.163Z,79.30
2022-08-18T22:06:02.198Z,79.40
2022-08-18T22:08:34.378Z,79.30
2022-08-18T22:11:59.809Z,79.20
2022-08-18T22:14:53.650Z,79.20
2022-08-18T22:17:27.114Z,79.20
2022-08-18T22:19:55.644Z,79.30
2022-08-18T22:22:42.095Z,79.50
2022-08-18T22:25:12.911Z,79.50
2022-08-18T22:27:41.093Z,79.60
2022-08-18T22:30:09.425Z,79.60
2022-08-18T22:32:38.897Z,79.60
2022-08-18T22:35:08.357Z,79.70
2022-08-18T22:37:45.326Z,79.70
2022-08-18T22:40:21.526Z,79.70
2022-08-18T22:42:50.039Z,79.80
2022-08-18T22:45:18.754Z,79.70
2022-08-18T22:47:46.517Z,79.80
2022-08-18T22:50:15.090Z,79.80
2022-08-18T22:52:46.334Z,79.90
2022-08-18T22:55:21.911Z,80.00
2022-08-18T22:57:54.362Z,80.10
2022-08-18T23:00:23.986Z,80.00
2022-08-18T23:02:53.803Z,80.00
2022-08-18T23:05:22.065Z,80.00
2022-08-18T23:07:49.906Z,80.10
2022-08-18T23:10:19.339Z,80.20
2022-08-18T23:12:49.714Z,80.10
2022-08-18T23:15:19.535Z,80.30
2022-08-18T23:17:48.003Z,80.40
2022-08-18T23:20:19.375Z,80.50
2022-08-18T23:22:48.513Z,80.50
2022-08-18T23:25:16.445Z,80.40
2022-08-18T23:27:45.575Z,80.50
2022-08-18T23:30:13.887Z,80.40
2022-08-18T23:32:42.837Z,80.50
2022-08-18T23:35:10.923Z,80.50
2022-08-18T23:37:39.448Z,80.50
2022-08-18T23:40:11.188Z,80.60
2022-08-18T23:42:38.989Z,80.50
2022-08-18T23:45:09.166Z,80.40
2022-08-18T23:47:36.921Z,80.40
2022-08-18T23:50:06.638Z,80.40
2022-08-18T23:52:34.747Z,80.40
2022-08-18T23:55:05.588Z,80.50
2022-08-18T23:57:33.375Z,80.50
